createdAt,value
2018-09-02T00:01:50.761Z,102478.80
2018-09-02T00:04:19.378Z,102484.80
2018-09-02T00:06:47.996Z,102481.20
2018-09-02T00:09:16.632Z,102486.14
2018-09-02T00:11:45.269Z,102486.90
2018-09-02T00:14:13.857Z,102483.43
2018-09-02T00:16:42.900Z,102484.45
2018-09-02T00:19:11.614Z,102478.24
2018-09-02T00:21:40.293Z,102478.06
2018-09-02T00:24:08.917Z,102481.63
2018-09-02T00:26:37.522Z,102481.56
2018-09-02T00:29:06.152Z,102474.20
2018-09-02T00:31:35.566Z,102472.27
2018-09-02T00:34:05.325Z,102477.52
2018-09-02T00:36:33.968Z,102476.48
2018-09-02T00:39:02.735Z,102476.81
2018-09-02T00:41:31.481Z,102476.39
2018-09-02T00:44:00.339Z,102473.95
2018-09-02T00:46:29.095Z,102477.37
2018-09-02T00:48:58.055Z,102475.27
2018-09-02T00:51:26.667Z,102470.86
2018-09-02T00:53:55.422Z,102475.84
2018-09-02T00:56:24.707Z,102465.77
2018-09-02T00:58:53.359Z,102469.12
2018-09-02T01:01:22.211Z,102460.94
2018-09-02T01:03:50.885Z,102466.20
2018-09-02T01:06:19.687Z,102470.42
2018-09-02T01:08:48.504Z,102474.22
2018-09-02T01:11:17.223Z,102479.58
2018-09-02T01:13:45.838Z,102472.67
2018-09-02T01:16:14.535Z,102475.84
2018-09-02T01:18:43.201Z,102477.59
2018-09-02T01:21:11.888Z,102473.06
2018-09-02T01:23:40.775Z,102469.27
2018-09-02T01:26:09.375Z,102469.95
2018-09-02T01:28:38.049Z,102479.01
2018-09-02T01:31:07.118Z,102474.27
2018-09-02T01:33:35.810Z,102479.70
2018-09-02T01:36:04.678Z,102474.48
2018-09-02T01:38:33.384Z,102479.39
2018-09-02T01:41:02.935Z,102475.33
2018-09-02T01:43:31.669Z,102472.33
2018-09-02T01:46:00.291Z,102472.72
2018-09-02T01:48:29.276Z,102482.59
2018-09-02T01:50:57.909Z,102475.43
2018-09-02T01:53:27.045Z,102469.32
2018-09-02T01:55:56.049Z,102472.72
2018-09-02T01:58:24.690Z,102483.43
2018-09-02T02:00:53.546Z,102482.16
2018-09-02T02:03:22.947Z,102479.49
2018-09-02T02:05:51.834Z,102468.52
2018-09-02T02:08:21.628Z,102468.40
2018-09-02T02:10:50.255Z,102475.05
2018-09-02T02:13:19.301Z,102472.39
2018-09-02T02:15:47.960Z,102472.72
2018-09-02T02:18:16.807Z,102476.73
2018-09-02T02:20:45.449Z,102469.63
2018-09-02T02:23:14.235Z,102467.42
2018-09-02T02:25:43.035Z,102470.59
2018-09-02T02:28:12.042Z,102468.66
2018-09-02T02:30:41.041Z,102468.66
2018-09-02T02:33:09.866Z,102468.32
2018-09-02T02:35:39.735Z,102463.16
2018-09-02T02:38:08.822Z,102464.38
2018-09-02T02:40:37.598Z,102460.14
2018-09-02T02:43:06.695Z,102463.66
2018-09-02T02:45:35.409Z,102463.08
2018-09-02T02:48:04.135Z,102454.56
2018-09-02T02:50:32.947Z,102455.66
2018-09-02T02:53:04.492Z,102455.88
2018-09-02T02:55:34.523Z,102461.29
2018-09-02T02:58:03.635Z,102450.99
2018-09-02T03:00:33.382Z,102450.58
2018-09-02T03:03:02.111Z,102455.54
2018-09-02T03:05:31.115Z,102452.14
2018-09-02T03:07:59.806Z,102448.89
2018-09-02T03:10:28.421Z,102449.22
2018-09-02T03:12:57.161Z,102453.84
2018-09-02T03:15:26.061Z,102451.64
2018-09-02T03:17:55.169Z,102447.92
2018-09-02T03:20:23.920Z,102445.92
2018-09-02T03:22:52.617Z,102446.30
2018-09-02T03:25:21.326Z,102449.64
2018-09-02T03:27:49.961Z,102446.64
2018-09-02T03:30:18.607Z,102438.02
2018-09-02T03:32:47.187Z,102444.98
2018-09-02T03:35:15.866Z,102442.03
2018-09-02T03:37:44.509Z,102437.33
2018-09-02T03:40:13.158Z,102439.57
2018-09-02T03:42:41.814Z,102437.24
2018-09-02T03:45:10.636Z,102432.76
2018-09-02T03:47:39.363Z,102430.73
2018-09-02T03:50:08.052Z,102431.58
2018-09-02T03:52:36.812Z,102433.52
2018-09-02T03:55:05.645Z,102426.29
2018-09-02T03:57:34.318Z,102424.16
2018-09-02T04:00:03.031Z,102424.72
2018-09-02T04:02:32.067Z,102427.17
2018-09-02T04:05:00.819Z,102428.48
2018-09-02T04:07:29.557Z,102435.52
2018-09-02T04:09:59.028Z,102435.39
2018-09-02T04:12:27.962Z,102437.59
2018-09-02T04:14:56.700Z,102428.16
2018-09-02T04:17:25.415Z,102430.64
2018-09-02T04:19:54.031Z,102430.09
2018-09-02T04:22:22.795Z,102423.50
2018-09-02T04:24:51.722Z,102429.84
2018-09-02T04:27:20.364Z,102424.05
2018-09-02T04:29:49.116Z,102421.77
2018-09-02T04:32:17.757Z,102427.59
2018-09-02T04:34:46.458Z,102426.03
2018-09-02T04:37:15.431Z,102419.98
2018-09-02T04:39:44.025Z,102427.47
2018-09-02T04:42:12.629Z,102424.25
2018-09-02T04:44:41.403Z,102419.81
2018-09-02T04:47:10.083Z,102418.45
2018-09-02T04:49:38.716Z,102422.72
2018-09-02T04:52:07.530Z,102416.58
2018-09-02T04:54:36.164Z,102418.91
2018-09-02T04:57:05.060Z,102421.30
2018-09-02T04:59:33.643Z,102418.39
2018-09-02T05:02:04.992Z,102413.94
2018-09-02T05:04:33.653Z,102417.61
2018-09-02T05:07:02.351Z,102414.13
2018-09-02T05:09:31.241Z,102416.50
2018-09-02T05:11:59.895Z,102419.80
2018-09-02T05:14:28.503Z,102419.41
2018-09-02T05:16:57.120Z,102413.09
2018-09-02T05:19:25.772Z,102412.27
2018-09-02T05:21:54.516Z,102415.50
2018-09-02T05:24:23.168Z,102415.67
2018-09-02T05:26:52.020Z,102415.79
2018-09-02T05:29:20.672Z,102411.14
2018-09-02T05:31:49.264Z,102414.39
2018-09-02T05:34:17.898Z,102418.24
2018-09-02T05:36:46.664Z,102410.38
2018-09-02T05:39:15.440Z,102414.86
2018-09-02T05:41:44.137Z,102423.38
2018-09-02T05:44:13.017Z,102422.87
2018-09-02T05:46:41.671Z,102421.97
2018-09-02T05:49:10.284Z,102420.77
2018-09-02T05:51:39.162Z,102420.36
2018-09-02T05:54:07.783Z,102420.22
2018-09-02T05:56:36.444Z,102423.55
2018-09-02T05:59:05.236Z,102426.55
2018-09-02T06:01:33.893Z,102427.43
2018-09-02T06:04:02.494Z,102427.02
2018-09-02T06:06:31.205Z,102429.45
2018-09-02T06:09:00.003Z,102426.32
2018-09-02T06:11:28.689Z,102438.17
2018-09-02T06:13:57.405Z,102427.92
2018-09-02T06:16:26.057Z,102428.86
2018-09-02T06:18:54.674Z,102430.19
2018-09-02T06:21:23.261Z,102436.05
2018-09-02T06:23:52.040Z,102439.72
2018-09-02T06:26:20.612Z,102433.53
2018-09-02T06:28:49.225Z,102440.54
2018-09-02T06:31:18.072Z,102435.32
2018-09-02T06:33:46.689Z,102432.05
2018-09-02T06:36:15.315Z,102436.94
2018-09-02T06:38:44.150Z,102438.58
2018-09-02T06:41:12.999Z,102429.73
2018-09-02T06:43:41.941Z,102437.38
2018-09-02T06:46:10.832Z,102435.23
2018-09-02T06:48:39.644Z,102430.12
2018-09-02T06:51:08.331Z,102428.11
2018-09-02T06:53:37.005Z,102426.48
2018-09-02T06:56:05.641Z,102430.45
2018-09-02T06:58:34.449Z,102432.14
2018-09-02T07:01:03.143Z,102425.90
2018-09-02T07:03:31.785Z,102420.48
2018-09-02T07:06:00.426Z,102427.81
2018-09-02T07:08:29.052Z,102425.78
2018-09-02T07:10:57.787Z,102418.78
2018-09-02T07:13:26.445Z,102430.33
2018-09-02T07:15:55.115Z,102424.53
2018-09-02T07:18:23.788Z,102426.80
2018-09-02T07:20:52.584Z,102427.33
2018-09-02T07:23:21.598Z,102427.52
2018-09-02T07:25:50.293Z,102426.62
2018-09-02T07:28:19.439Z,102434.73
2018-09-02T07:30:48.143Z,102433.61
2018-09-02T07:33:17.137Z,102436.63
2018-09-02T07:35:45.810Z,102440.81
2018-09-02T07:38:14.513Z,102436.83
2018-09-02T07:40:43.310Z,102435.94
2018-09-02T07:43:11.958Z,102433.73
2018-09-02T07:45:40.614Z,102441.47
2018-09-02T07:48:09.323Z,102436.08
2018-09-02T07:50:37.949Z,102433.41
2018-09-02T07:53:06.591Z,102442.45
2018-09-02T07:55:35.240Z,102436.39
2018-09-02T07:58:04.092Z,102431.11
2018-09-02T08:00:32.741Z,102435.64
2018-09-02T08:03:01.640Z,102433.42
2018-09-02T08:05:30.325Z,102436.20
2018-09-02T08:07:58.974Z,102443.06
2018-09-02T08:10:27.640Z,102437.14
2018-09-02T08:12:56.420Z,102431.80
2018-09-02T08:15:25.219Z,102435.06
2018-09-02T08:17:53.817Z,102433.32
2018-09-02T08:20:22.547Z,102432.88
2018-09-02T08:22:51.274Z,102435.06
2018-09-02T08:25:19.932Z,102432.40
2018-09-02T08:27:50.044Z,102432.92
2018-09-02T08:30:18.683Z,102425.22
2018-09-02T08:32:47.834Z,102425.28
2018-09-02T08:35:16.507Z,102422.72
2018-09-02T08:37:45.420Z,102422.62
2018-09-02T08:40:14.907Z,102421.55
2018-09-02T08:42:43.551Z,102424.99
2018-09-02T08:45:12.386Z,102414.06
2018-09-02T08:47:41.031Z,102418.66
2018-09-02T08:50:09.727Z,102413.75
2018-09-02T08:52:38.411Z,102415.34
2018-09-02T08:55:07.078Z,102412.68
2018-09-02T08:57:35.759Z,102411.40
2018-09-02T09:00:04.578Z,102406.30
2018-09-02T09:02:33.243Z,102397.70
2018-09-02T09:05:01.883Z,102404.11
2018-09-02T09:07:31.846Z,102398.20
2018-09-02T09:10:00.396Z,102397.69
2018-09-02T09:12:29.118Z,102394.52
2018-09-02T09:14:57.936Z,102396.73
2018-09-02T09:17:26.607Z,102394.25
2018-09-02T09:19:55.233Z,102390.93
2018-09-02T09:22:23.874Z,102394.17
2018-09-02T09:24:52.520Z,102398.13
2018-09-02T09:27:21.159Z,102393.34
2018-09-02T09:29:49.771Z,102395.40
2018-09-02T09:32:18.465Z,102389.74
2018-09-02T09:34:47.090Z,102392.44
2018-09-02T09:37:15.707Z,102396.44
2018-09-02T09:39:44.348Z,102393.05
2018-09-02T09:42:13.005Z,102389.26
2018-09-02T09:44:41.647Z,102394.69
2018-09-02T09:47:10.329Z,102388.14
2018-09-02T09:49:39.327Z,102394.92
2018-09-02T09:52:08.096Z,102388.44
2018-09-02T09:54:37.148Z,102385.05
2018-09-02T09:57:05.813Z,102392.23
2018-09-02T09:59:34.503Z,102380.41
2018-09-02T10:02:03.368Z,102374.57
2018-09-02T10:04:32.060Z,102377.92
2018-09-02T10:07:00.703Z,102370.17
2018-09-02T10:09:29.338Z,102373.30
2018-09-02T10:11:57.959Z,102368.48
2018-09-02T10:14:26.622Z,102359.38
2018-09-02T10:16:55.271Z,102365.13
2018-09-02T10:19:24.565Z,102361.55
2018-09-02T10:21:53.217Z,102360.94
2018-09-02T10:24:21.827Z,102355.23
2018-09-02T10:26:50.513Z,102352.25
2018-09-02T10:29:19.180Z,102351.53
2018-09-02T10:31:47.833Z,102345.90
2018-09-02T10:34:16.457Z,102344.68
2018-09-02T10:36:45.159Z,102342.17
2018-09-02T10:39:13.800Z,102341.02
2018-09-02T10:41:42.498Z,102326.03
2018-09-02T10:44:11.118Z,102334.92
2018-09-02T10:46:39.750Z,102326.98
2018-09-02T10:49:08.453Z,102324.98
2018-09-02T10:51:37.122Z,102325.41
2018-09-02T10:54:06.759Z,102319.20
2018-09-02T10:56:35.400Z,102316.30
2018-09-02T10:59:04.050Z,102310.80
2018-09-02T11:01:32.763Z,102305.97
2018-09-02T11:04:01.508Z,102301.11
2018-09-02T11:06:30.169Z,102301.11
2018-09-02T11:08:58.836Z,102306.72
2018-09-02T11:11:27.566Z,102301.48
2018-09-02T11:13:56.385Z,102293.66
2018-09-02T11:16:25.017Z,102294.90
2018-09-02T11:18:53.672Z,102295.78
2018-09-02T11:21:22.285Z,102292.51
2018-09-02T11:23:50.948Z,102293.92
2018-09-02T11:26:19.569Z,102293.89
2018-09-02T11:28:48.288Z,102291.17
2018-09-02T11:31:16.927Z,102284.27
2018-09-02T11:33:45.555Z,102279.57
2018-09-02T11:36:14.194Z,102278.73
2018-09-02T11:38:43.013Z,102282.86
2018-09-02T11:41:12.007Z,102285.61
2018-09-02T11:43:40.608Z,102275.97
2018-09-02T11:46:09.222Z,102268.20
2018-09-02T11:48:40.852Z,102278.09
2018-09-02T11:51:09.509Z,102267.30
2018-09-02T11:53:38.104Z,102262.38
2018-09-02T11:56:06.788Z,102261.47
2018-09-02T11:58:35.851Z,102256.28
2018-09-02T12:01:04.528Z,102255.64
2018-09-02T12:03:33.270Z,102258.67
2018-09-02T12:06:01.958Z,102253.80
2018-09-02T12:08:30.652Z,102249.88
2018-09-02T12:10:59.276Z,102252.86
2018-09-02T12:13:27.971Z,102256.93
2018-09-02T12:15:56.602Z,102247.58
2018-09-02T12:18:25.389Z,102249.92
2018-09-02T12:20:54.096Z,102245.21
2018-09-02T12:23:22.774Z,102241.95
2018-09-02T12:25:51.449Z,102236.64
2018-09-02T12:28:20.134Z,102237.47
2018-09-02T12:30:48.785Z,102226.74
2018-09-02T12:33:17.423Z,102228.18
2018-09-02T12:35:46.111Z,102235.94
2018-09-02T12:38:14.935Z,102235.47
2018-09-02T12:40:43.868Z,102222.65
2018-09-02T12:43:12.603Z,102226.80
2018-09-02T12:45:41.395Z,102225.73
2018-09-02T12:48:10.169Z,102222.61
2018-09-02T12:50:38.803Z,102215.16
2018-09-02T12:53:07.465Z,102216.86
2018-09-02T12:55:36.214Z,102212.23
2018-09-02T12:58:05.220Z,102212.41
2018-09-02T13:00:34.705Z,102202.41
2018-09-02T13:03:05.767Z,102201.27
2018-09-02T13:05:34.415Z,102193.54
2018-09-02T13:08:03.258Z,102196.32
2018-09-02T13:10:32.012Z,102188.03
2018-09-02T13:13:00.650Z,102191.95
2018-09-02T13:15:29.344Z,102190.53
2018-09-02T13:17:58.061Z,102187.27
2018-09-02T13:20:26.760Z,102178.67
2018-09-02T13:22:55.512Z,102178.16
2018-09-02T13:25:24.285Z,102177.16
2018-09-02T13:27:53.039Z,102174.50
2018-09-02T13:30:21.768Z,102174.07
2018-09-02T13:32:50.367Z,102166.39
2018-09-02T13:35:19.041Z,102156.08
2018-09-02T13:37:47.688Z,102155.20
2018-09-02T13:40:16.535Z,102159.75
2018-09-02T13:42:45.470Z,102153.80
2018-09-02T13:45:14.185Z,102147.97
2018-09-02T13:47:42.922Z,102144.21
2018-09-02T13:50:11.671Z,102141.98
2018-09-02T13:52:40.347Z,102139.27
2018-09-02T13:55:08.973Z,102136.45
2018-09-02T13:57:37.649Z,102138.75
2018-09-02T14:00:06.808Z,102134.45
2018-09-02T14:02:35.473Z,102127.39
2018-09-02T14:05:04.203Z,102128.24
2018-09-02T14:07:32.955Z,102129.50
2018-09-02T14:10:01.616Z,102130.98
2018-09-02T14:12:30.469Z,102124.61
2018-09-02T14:14:59.277Z,102122.61
2018-09-02T14:17:27.904Z,102116.95
2018-09-02T14:19:56.884Z,102113.63
2018-09-02T14:22:25.531Z,102108.56
2018-09-02T14:24:54.130Z,102104.29
2018-09-02T14:27:22.770Z,102104.59
2018-09-02T14:29:51.518Z,102104.34
2018-09-02T14:32:20.178Z,102093.47
2018-09-02T14:34:48.915Z,102097.16
2018-09-02T14:37:17.553Z,102094.26
2018-09-02T14:39:46.431Z,102088.34
2018-09-02T14:42:15.193Z,102094.72
2018-09-02T14:44:43.859Z,102084.19
2018-09-02T14:47:12.772Z,102081.02
2018-09-02T14:49:41.444Z,102077.87
2018-09-02T14:52:10.283Z,102081.16
2018-09-02T14:54:39.136Z,102084.30
2018-09-02T14:57:07.824Z,102083.84
2018-09-02T14:59:36.643Z,102074.94
2018-09-02T15:02:05.436Z,102075.53
2018-09-02T15:04:34.077Z,102068.45
2018-09-02T15:07:03.110Z,102069.99
2018-09-02T15:09:31.832Z,102076.32
2018-09-02T15:12:00.473Z,102068.45
2018-09-02T15:14:29.128Z,102072.92
2018-09-02T15:16:57.817Z,102063.69
2018-09-02T15:19:26.445Z,102064.60
2018-09-02T15:21:55.145Z,102066.47
2018-09-02T15:24:23.799Z,102069.43
2018-09-02T15:26:52.485Z,102064.73
2018-09-02T15:29:21.260Z,102058.61
2018-09-02T15:31:51.092Z,102053.80
2018-09-02T15:34:19.983Z,102053.53
2018-09-02T15:36:48.677Z,102057.30
2018-09-02T15:39:17.396Z,102047.72
2018-09-02T15:41:46.662Z,102049.39
2018-09-02T15:44:15.519Z,102049.88
2018-09-02T15:46:44.140Z,102041.11
2018-09-02T15:49:12.915Z,102044.55
2018-09-02T15:51:41.655Z,102036.38
2018-09-02T15:54:10.295Z,102028.22
2018-09-02T15:56:38.905Z,102028.34
2018-09-02T15:59:07.700Z,102024.45
2018-09-02T16:01:37.469Z,102025.05
2018-09-02T16:04:06.131Z,102027.03
2018-09-02T16:06:35.756Z,102016.06
2018-09-02T16:09:06.818Z,102013.92
2018-09-02T16:11:36.305Z,102015.85
2018-09-02T16:14:07.389Z,102012.45
2018-09-02T16:16:37.732Z,102009.34
2018-09-02T16:19:07.512Z,102007.93
2018-09-02T16:21:36.175Z,102006.36
2018-09-02T16:24:05.855Z,102007.84
2018-09-02T16:26:34.888Z,102007.53
2018-09-02T16:29:04.369Z,102008.27
2018-09-02T16:31:34.712Z,102005.93
2018-09-02T16:34:04.285Z,102009.67
2018-09-02T16:36:32.958Z,102010.07
2018-09-02T16:39:01.684Z,102018.14
2018-09-02T16:41:30.461Z,102011.02
2018-09-02T16:43:59.402Z,101998.77
2018-09-02T16:46:28.115Z,102000.69
2018-09-02T16:48:56.818Z,102005.30
2018-09-02T16:51:25.780Z,102003.45
2018-09-02T16:53:54.476Z,102003.08
2018-09-02T16:56:23.115Z,101994.69
2018-09-02T16:58:51.794Z,101993.44
2018-09-02T17:01:20.510Z,101997.20
2018-09-02T17:04:07.850Z,101998.09
2018-09-02T17:06:37.400Z,101993.46
2018-09-02T17:09:09.392Z,101990.81
2018-09-02T17:11:38.487Z,101983.80
2018-09-02T17:14:07.522Z,101989.42
2018-09-02T17:16:36.188Z,101990.91
2018-09-02T17:19:08.221Z,101989.01
2018-09-02T17:21:36.949Z,101987.80
2018-09-02T17:24:05.663Z,101987.65
2018-09-02T17:26:34.490Z,101988.16
2018-09-02T17:29:03.124Z,101979.47
2018-09-02T17:31:31.768Z,101985.72
2018-09-02T17:34:00.467Z,101974.69
2018-09-02T17:36:29.172Z,101972.97
2018-09-02T17:38:58.104Z,101973.97
2018-09-02T17:41:26.746Z,101971.50
2018-09-02T17:43:55.505Z,101974.46
2018-09-02T17:46:24.176Z,101971.81
2018-09-02T17:48:52.790Z,101968.28
2018-09-02T17:51:22.142Z,101966.56
2018-09-02T17:53:50.833Z,101966.41
2018-09-02T17:56:19.528Z,101959.48
2018-09-02T17:58:48.296Z,101968.77
2018-09-02T18:01:17.042Z,101968.52
2018-09-02T18:03:45.816Z,101965.77
2018-09-02T18:06:14.529Z,101968.25
2018-09-02T18:08:43.802Z,101977.23
2018-09-02T18:11:12.485Z,101971.12
2018-09-02T18:13:41.123Z,101971.95
2018-09-02T18:16:10.424Z,101976.25
2018-09-02T18:18:40.067Z,101974.83
2018-09-02T18:21:08.827Z,101979.45
2018-09-02T18:23:37.617Z,101978.71
2018-09-02T18:26:06.365Z,101978.92
2018-09-02T18:28:37.770Z,101977.22
2018-09-02T18:31:06.524Z,101986.27
2018-09-02T18:33:35.207Z,101987.31
2018-09-02T18:36:03.971Z,101987.81
2018-09-02T18:38:32.605Z,101987.73
2018-09-02T18:41:01.632Z,101994.80
2018-09-02T18:43:30.310Z,101991.91
2018-09-02T18:45:58.917Z,101979.48
2018-09-02T18:48:27.584Z,101980.45
2018-09-02T18:50:56.236Z,101982.05
2018-09-02T18:53:25.102Z,101983.63
2018-09-02T18:55:54.126Z,101992.47
2018-09-02T18:58:22.829Z,101985.13
2018-09-02T19:00:51.499Z,101982.86
2018-09-02T19:03:20.250Z,101978.77
2018-09-02T19:05:48.962Z,101978.53
2018-09-02T19:08:17.703Z,101978.67
2018-09-02T19:10:46.622Z,101977.73
2018-09-02T19:13:15.293Z,101983.28
2018-09-02T19:15:44.002Z,101983.52
2018-09-02T19:18:12.858Z,101980.45
2018-09-02T19:20:43.086Z,101983.01
2018-09-02T19:23:11.818Z,101981.08
2018-09-02T19:25:40.714Z,101984.84
2018-09-02T19:28:09.372Z,101982.39
2018-09-02T19:30:38.058Z,101983.84
2018-09-02T19:33:06.973Z,101978.94
2018-09-02T19:35:35.593Z,101978.42
2018-09-02T19:38:04.468Z,101979.21
2018-09-02T19:40:33.314Z,101974.53
2018-09-02T19:43:02.075Z,101977.81
2018-09-02T19:45:30.729Z,101977.89
2018-09-02T19:47:59.614Z,101977.67
2018-09-02T19:50:28.368Z,101972.94
2018-09-02T19:52:57.204Z,101974.58
2018-09-02T19:55:25.931Z,101970.12
2018-09-02T19:57:54.740Z,101974.80
2018-09-02T20:00:23.477Z,101967.20
2018-09-02T20:02:52.227Z,101967.52
2018-09-02T20:05:21.007Z,101968.08
2018-09-02T20:07:49.668Z,101969.37
2018-09-02T20:10:18.598Z,101971.09
2018-09-02T20:12:47.682Z,101963.40
2018-09-02T20:15:16.365Z,101961.80
2018-09-02T20:17:45.220Z,101958.38
2018-09-02T20:20:13.912Z,101956.67
2018-09-02T20:22:42.639Z,101950.66
2018-09-02T20:25:11.354Z,101954.56
2018-09-02T20:27:39.980Z,101957.48
2018-09-02T20:30:08.669Z,101950.95
2018-09-02T20:32:37.439Z,101949.05
2018-09-02T20:35:06.120Z,101954.36
2018-09-02T20:37:34.796Z,101951.29
2018-09-02T20:40:03.424Z,101950.75
2018-09-02T20:42:32.046Z,101948.02
2018-09-02T20:45:00.796Z,101952.75
2018-09-02T20:47:29.567Z,101943.33
2018-09-02T20:49:58.549Z,101947.12
2018-09-02T20:52:27.246Z,101940.02
2018-09-02T20:54:55.900Z,101942.70
2018-09-02T20:57:24.624Z,101944.28
2018-09-02T20:59:53.248Z,101945.45
2018-09-02T21:02:22.064Z,101941.63
2018-09-02T21:04:50.850Z,101941.57
2018-09-02T21:07:19.523Z,101945.20
2018-09-02T21:09:48.234Z,101940.77
2018-09-02T21:12:16.838Z,101940.71
2018-09-02T21:14:45.701Z,101940.11
2018-09-02T21:17:14.300Z,101938.47
2018-09-02T21:19:42.971Z,101935.91
2018-09-02T21:22:11.608Z,101937.61
2018-09-02T21:24:40.200Z,101935.58
2018-09-02T21:27:08.866Z,101935.23
2018-09-02T21:29:37.492Z,101933.20
2018-09-02T21:32:06.413Z,101935.40
2018-09-02T21:34:35.424Z,101936.67
2018-09-02T21:37:04.050Z,101933.60
2018-09-02T21:39:32.680Z,101924.61
2018-09-02T21:42:02.896Z,101924.48
2018-09-02T21:44:31.572Z,101925.52
2018-09-02T21:47:03.253Z,101929.16
2018-09-02T21:49:31.868Z,101921.77
2018-09-02T21:52:00.643Z,101920.84
2018-09-02T21:54:29.373Z,101916.94
2018-09-02T21:56:59.219Z,101914.43
2018-09-02T21:59:27.860Z,101910.81
2018-09-02T22:01:56.608Z,101918.61
2018-09-02T22:04:29.250Z,101898.79
2018-09-02T22:06:57.941Z,101905.07
2018-09-02T22:09:26.597Z,101899.62
2018-09-02T22:11:55.204Z,101904.70
2018-09-02T22:14:23.833Z,101899.62
2018-09-02T22:16:52.783Z,101906.08
2018-09-02T22:19:21.422Z,101898.76
2018-09-02T22:21:50.053Z,101893.88
2018-09-02T22:24:18.704Z,101902.40
2018-09-02T22:26:47.346Z,101896.72
2018-09-02T22:29:16.130Z,101896.41
2018-09-02T22:31:45.332Z,101898.02
2018-09-02T22:34:13.949Z,101884.57
2018-09-02T22:36:42.550Z,101879.13
2018-09-02T22:39:11.154Z,101871.75
2018-09-02T22:41:40.215Z,101879.39
2018-09-02T22:44:08.974Z,101875.91
2018-09-02T22:46:37.616Z,101875.88
2018-09-02T22:49:06.325Z,101876.81
2018-09-02T22:51:35.367Z,101878.27
2018-09-02T22:54:03.990Z,101869.48
2018-09-02T22:56:34.772Z,101870.59
2018-09-02T22:59:03.582Z,101868.61
2018-09-02T23:01:32.443Z,101856.52
2018-09-02T23:04:01.103Z,101859.22
2018-09-02T23:06:29.922Z,101852.88
2018-09-02T23:09:00.942Z,101859.11
2018-09-02T23:11:29.574Z,101858.80
2018-09-02T23:13:58.384Z,101856.67
2018-09-02T23:16:27.048Z,101856.94
2018-09-02T23:18:55.802Z,101857.73
2018-09-02T23:21:24.576Z,101854.13
2018-09-02T23:23:55.423Z,101861.62
2018-09-02T23:26:24.072Z,101855.41
2018-09-02T23:28:55.251Z,101851.27
2018-09-02T23:31:23.909Z,101854.58
2018-09-02T23:33:52.714Z,101852.84
2018-09-02T23:36:21.809Z,101845.72
2018-09-02T23:38:50.569Z,101836.03
2018-09-02T23:41:19.178Z,101827.72
2018-09-02T23:43:48.030Z,101829.42
2018-09-02T23:46:16.650Z,101823.95
2018-09-02T23:48:45.316Z,101822.52
2018-09-02T23:51:14.149Z,101819.62
2018-09-02T23:53:42.791Z,101821.59
2018-09-02T23:56:13.852Z,101816.23
2018-09-02T23:58:42.540Z,101814.03
